sensor_id;sensor_type;location;lat;lon;timestamp;P1;durP1;ratioP1;P2;durP2;ratioP2
42760;SDS011;31672;47.638;19.026;2023-11-21T00:02:53;2.57;;;1.20;;
42760;SDS011;31672;47.638;19.026;2023-11-21T00:07:56;5.80;;;1.40;;
42760;SDS011;31672;47.638;19.026;2023-11-21T00:13:00;5.53;;;1.30;;
42760;SDS011;31672;47.638;19.026;2023-11-21T00:18:05;2.13;;;1.13;;
42760;SDS011;31672;47.638;19.026;2023-11-21T00:23:09;3.33;;;1.40;;
42760;SDS011;31672;47.638;19.026;2023-11-21T00:28:13;3.77;;;1.23;;
42760;SDS011;31672;47.638;19.026;2023-11-21T00:33:16;3.13;;;1.30;;
42760;SDS011;31672;47.638;19.026;2023-11-21T00:38:20;2.77;;;1.30;;
42760;SDS011;31672;47.638;19.026;2023-11-21T00:43:24;3.77;;;1.40;;
42760;SDS011;31672;47.638;19.026;2023-11-21T00:48:28;2.80;;;1.47;;
42760;SDS011;31672;47.638;19.026;2023-11-21T00:53:31;2.73;;;0.90;;
42760;SDS011;31672;47.638;19.026;2023-11-21T00:58:35;5.73;;;1.20;;
42760;SDS011;31672;47.638;19.026;2023-11-21T01:03:38;5.63;;;1.67;;
42760;SDS011;31672;47.638;19.026;2023-11-21T01:08:43;3.87;;;1.30;;
42760;SDS011;31672;47.638;19.026;2023-11-21T01:13:47;8.50;;;1.40;;
42760;SDS011;31672;47.638;19.026;2023-11-21T01:18:51;2.77;;;1.67;;
42760;SDS011;31672;47.638;19.026;2023-11-21T01:23:55;2.90;;;1.07;;
42760;SDS011;31672;47.638;19.026;2023-11-21T01:28:58;7.90;;;2.13;;
42760;SDS011;31672;47.638;19.026;2023-11-21T01:34:02;6.07;;;1.17;;
42760;SDS011;31672;47.638;19.026;2023-11-21T01:39:06;4.07;;;1.60;;
42760;SDS011;31672;47.638;19.026;2023-11-21T01:44:11;2.90;;;1.10;;
42760;SDS011;31672;47.638;19.026;2023-11-21T01:49:16;3.23;;;1.37;;
42760;SDS011;31672;47.638;19.026;2023-11-21T01:54:20;4.40;;;1.90;;
42760;SDS011;31672;47.638;19.026;2023-11-21T01:59:25;4.90;;;1.70;;
42760;SDS011;31672;47.638;19.026;2023-11-21T02:04:34;5.57;;;1.60;;
42760;SDS011;31672;47.638;19.026;2023-11-21T02:09:40;3.87;;;1.63;;
42760;SDS011;31672;47.638;19.026;2023-11-21T02:14:45;4.43;;;2.13;;
42760;SDS011;31672;47.638;19.026;2023-11-21T02:19:49;4.00;;;1.90;;
42760;SDS011;31672;47.638;19.026;2023-11-21T02:24:54;5.03;;;1.70;;
42760;SDS011;31672;47.638;19.026;2023-11-21T02:29:57;27.60;;;5.13;;
42760;SDS011;31672;47.638;19.026;2023-11-21T02:35:02;8.33;;;2.60;;
42760;SDS011;31672;47.638;19.026;2023-11-21T02:40:10;8.60;;;4.07;;
42760;SDS011;31672;47.638;19.026;2023-11-21T02:45:20;6.77;;;2.10;;
42760;SDS011;31672;47.638;19.026;2023-11-21T02:50:25;3.80;;;1.93;;
42760;SDS011;31672;47.638;19.026;2023-11-21T02:55:29;5.03;;;2.43;;
42760;SDS011;31672;47.638;19.026;2023-11-21T03:00:33;3.73;;;1.60;;
42760;SDS011;31672;47.638;19.026;2023-11-21T03:05:37;4.40;;;1.67;;
42760;SDS011;31672;47.638;19.026;2023-11-21T03:10:41;3.70;;;1.80;;
42760;SDS011;31672;47.638;19.026;2023-11-21T03:15:45;2.33;;;1.30;;
42760;SDS011;31672;47.638;19.026;2023-11-21T03:20:48;2.30;;;1.20;;
42760;SDS011;31672;47.638;19.026;2023-11-21T03:25:55;4.87;;;1.57;;
42760;SDS011;31672;47.638;19.026;2023-11-21T03:30:59;4.37;;;1.10;;
42760;SDS011;31672;47.638;19.026;2023-11-21T03:36:02;3.93;;;1.37;;
42760;SDS011;31672;47.638;19.026;2023-11-21T03:41:07;3.87;;;1.40;;
42760;SDS011;31672;47.638;19.026;2023-11-21T03:46:12;3.30;;;1.47;;
42760;SDS011;31672;47.638;19.026;2023-11-21T03:51:16;3.37;;;1.50;;
42760;SDS011;31672;47.638;19.026;2023-11-21T03:56:20;3.10;;;1.40;;
42760;SDS011;31672;47.638;19.026;2023-11-21T04:01:26;2.40;;;1.20;;
42760;SDS011;31672;47.638;19.026;2023-11-21T04:06:30;3.63;;;1.43;;
42760;SDS011;31672;47.638;19.026;2023-11-21T04:11:35;3.43;;;1.50;;
42760;SDS011;31672;47.638;19.026;2023-11-21T04:16:40;4.57;;;1.63;;
42760;SDS011;31672;47.638;19.026;2023-11-21T04:21:45;7.83;;;3.03;;
42760;SDS011;31672;47.638;19.026;2023-11-21T04:26:48;5.13;;;2.20;;
42760;SDS011;31672;47.638;19.026;2023-11-21T04:31:53;6.33;;;1.90;;
42760;SDS011;31672;47.638;19.026;2023-11-21T04:36:57;6.50;;;1.63;;
42760;SDS011;31672;47.638;19.026;2023-11-21T04:42:00;4.10;;;1.80;;
42760;SDS011;31672;47.638;19.026;2023-11-21T04:47:05;3.97;;;1.53;;
42760;SDS011;31672;47.638;19.026;2023-11-21T04:52:08;4.33;;;1.80;;
42760;SDS011;31672;47.638;19.026;2023-11-21T04:57:12;7.53;;;2.20;;
42760;SDS011;31672;47.638;19.026;2023-11-21T05:02:17;5.70;;;1.97;;
42760;SDS011;31672;47.638;19.026;2023-11-21T05:07:37;4.97;;;1.30;;
42760;SDS011;31672;47.638;19.026;2023-11-21T05:12:42;3.17;;;1.30;;
42760;SDS011;31672;47.638;19.026;2023-11-21T05:17:46;10.00;;;3.80;;
42760;SDS011;31672;47.638;19.026;2023-11-21T05:22:52;9.70;;;3.87;;
42760;SDS011;31672;47.638;19.026;2023-11-21T05:27:56;14.77;;;5.37;;
42760;SDS011;31672;47.638;19.026;2023-11-21T05:33:04;17.33;;;6.00;;
42760;SDS011;31672;47.638;19.026;2023-11-21T05:38:08;12.90;;;5.00;;
42760;SDS011;31672;47.638;19.026;2023-11-21T05:43:11;14.93;;;5.33;;
42760;SDS011;31672;47.638;19.026;2023-11-21T05:48:15;10.03;;;5.97;;
42760;SDS011;31672;47.638;19.026;2023-11-21T05:53:18;4.77;;;2.20;;
42760;SDS011;31672;47.638;19.026;2023-11-21T05:58:22;11.47;;;4.53;;
42760;SDS011;31672;47.638;19.026;2023-11-21T06:03:27;10.73;;;4.63;;
42760;SDS011;31672;47.638;19.026;2023-11-21T06:08:32;10.87;;;4.93;;
42760;SDS011;31672;47.638;19.026;2023-11-21T06:13:36;14.20;;;3.60;;
42760;SDS011;31672;47.638;19.026;2023-11-21T06:18:40;5.07;;;2.23;;
42760;SDS011;31672;47.638;19.026;2023-11-21T06:23:44;5.57;;;1.30;;
42760;SDS011;31672;47.638;19.026;2023-11-21T06:28:48;3.30;;;1.33;;
42760;SDS011;31672;47.638;19.026;2023-11-21T06:33:54;3.17;;;1.40;;
42760;SDS011;31672;47.638;19.026;2023-11-21T06:38:58;3.90;;;1.90;;
42760;SDS011;31672;47.638;19.026;2023-11-21T06:44:02;2.43;;;1.23;;
42760;SDS011;31672;47.638;19.026;2023-11-21T06:49:08;2.70;;;1.30;;
42760;SDS011;31672;47.638;19.026;2023-11-21T06:54:11;3.87;;;1.37;;
42760;SDS011;31672;47.638;19.026;2023-11-21T06:59:16;9.00;;;1.50;;
42760;SDS011;31672;47.638;19.026;2023-11-21T07:04:20;3.43;;;1.20;;
42760;SDS011;31672;47.638;19.026;2023-11-21T07:09:24;5.17;;;1.30;;
42760;SDS011;31672;47.638;19.026;2023-11-21T07:14:28;8.03;;;3.30;;
42760;SDS011;31672;47.638;19.026;2023-11-21T07:19:32;3.60;;;1.73;;
42760;SDS011;31672;47.638;19.026;2023-11-21T07:24:36;2.77;;;1.20;;
42760;SDS011;31672;47.638;19.026;2023-11-21T07:29:40;3.13;;;1.13;;
42760;SDS011;31672;47.638;19.026;2023-11-21T07:34:44;6.33;;;1.53;;
42760;SDS011;31672;47.638;19.026;2023-11-21T07:39:48;5.70;;;1.50;;
42760;SDS011;31672;47.638;19.026;2023-11-21T07:44:52;7.80;;;1.50;;
42760;SDS011;31672;47.638;19.026;2023-11-21T07:49:55;2.30;;;1.20;;
42760;SDS011;31672;47.638;19.026;2023-11-21T07:54:59;3.57;;;1.70;;
42760;SDS011;31672;47.638;19.026;2023-11-21T08:00:04;3.13;;;1.73;;
42760;SDS011;31672;47.638;19.026;2023-11-21T08:05:13;5.63;;;1.93;;
42760;SDS011;31672;47.638;19.026;2023-11-21T08:10:30;5.53;;;2.30;;
42760;SDS011;31672;47.638;19.026;2023-11-21T08:15:33;6.40;;;2.00;;
42760;SDS011;31672;47.638;19.026;2023-11-21T08:20:38;7.23;;;1.70;;
42760;SDS011;31672;47.638;19.026;2023-11-21T08:25:46;3.50;;;1.70;;
42760;SDS011;31672;47.638;19.026;2023-11-21T08:30:50;3.50;;;1.53;;
42760;SDS011;31672;47.638;19.026;2023-11-21T08:35:53;5.53;;;1.87;;
42760;SDS011;31672;47.638;19.026;2023-11-21T08:40:57;2.10;;;1.07;;
42760;SDS011;31672;47.638;19.026;2023-11-21T08:46:01;3.07;;;1.47;;
42760;SDS011;31672;47.638;19.026;2023-11-21T08:51:09;4.00;;;1.00;;
42760;SDS011;31672;47.638;19.026;2023-11-21T08:56:17;2.30;;;1.00;;
42760;SDS011;31672;47.638;19.026;2023-11-21T09:01:21;8.43;;;2.50;;
42760;SDS011;31672;47.638;19.026;2023-11-21T09:06:26;9.60;;;3.00;;
42760;SDS011;31672;47.638;19.026;2023-11-21T09:11:31;6.20;;;2.33;;
42760;SDS011;31672;47.638;19.026;2023-11-21T09:16:37;3.03;;;1.60;;
42760;SDS011;31672;47.638;19.026;2023-11-21T09:21:41;9.47;;;3.90;;
42760;SDS011;31672;47.638;19.026;2023-11-21T09:26:45;7.90;;;2.97;;
42760;SDS011;31672;47.638;19.026;2023-11-21T09:31:48;4.67;;;2.03;;
42760;SDS011;31672;47.638;19.026;2023-11-21T09:36:54;2.47;;;1.20;;
42760;SDS011;31672;47.638;19.026;2023-11-21T09:41:59;3.70;;;1.37;;
42760;SDS011;31672;47.638;19.026;2023-11-21T09:47:39;3.47;;;1.10;;
42760;SDS011;31672;47.638;19.026;2023-11-21T09:58:13;4.53;;;1.10;;
42760;SDS011;31672;47.638;19.026;2023-11-21T10:03:18;2.53;;;1.27;;
42760;SDS011;31672;47.638;19.026;2023-11-21T10:08:22;23.23;;;10.03;;
42760;SDS011;31672;47.638;19.026;2023-11-21T10:13:48;10.47;;;5.80;;
42760;SDS011;31672;47.638;19.026;2023-11-21T10:18:57;18.37;;;9.63;;
42760;SDS011;31672;47.638;19.026;2023-11-21T10:24:13;11.07;;;7.20;;
42760;SDS011;31672;47.638;19.026;2023-11-21T10:29:17;9.90;;;4.90;;
42760;SDS011;31672;47.638;19.026;2023-11-21T10:34:21;18.50;;;6.47;;
42760;SDS011;31672;47.638;19.026;2023-11-21T10:39:26;22.67;;;7.80;;
42760;SDS011;31672;47.638;19.026;2023-11-21T10:44:33;15.10;;;6.90;;
42760;SDS011;31672;47.638;19.026;2023-11-21T10:49:37;11.13;;;4.67;;
42760;SDS011;31672;47.638;19.026;2023-11-21T10:54:43;9.67;;;4.10;;
42760;SDS011;31672;47.638;19.026;2023-11-21T10:59:47;6.80;;;3.97;;
42760;SDS011;31672;47.638;19.026;2023-11-21T11:04:55;9.47;;;4.80;;
42760;SDS011;31672;47.638;19.026;2023-11-21T11:10:00;17.10;;;7.37;;
42760;SDS011;31672;47.638;19.026;2023-11-21T11:15:04;18.23;;;7.57;;
42760;SDS011;31672;47.638;19.026;2023-11-21T11:20:09;23.87;;;8.50;;
42760;SDS011;31672;47.638;19.026;2023-11-21T11:36:28;11.20;;;5.03;;
42760;SDS011;31672;47.638;19.026;2023-11-21T11:42:07;7.80;;;3.20;;
42760;SDS011;31672;47.638;19.026;2023-11-21T11:47:15;3.17;;;1.40;;
42760;SDS011;31672;47.638;19.026;2023-11-21T11:57:47;25.33;;;4.37;;
42760;SDS011;31672;47.638;19.026;2023-11-21T12:02:59;11.73;;;4.37;;
42760;SDS011;31672;47.638;19.026;2023-11-21T12:08:06;11.60;;;5.07;;
42760;SDS011;31672;47.638;19.026;2023-11-21T12:13:11;11.27;;;5.50;;
42760;SDS011;31672;47.638;19.026;2023-11-21T12:18:17;10.20;;;4.47;;
42760;SDS011;31672;47.638;19.026;2023-11-21T12:23:21;14.67;;;3.83;;
42760;SDS011;31672;47.638;19.026;2023-11-21T12:28:25;10.90;;;4.37;;
42760;SDS011;31672;47.638;19.026;2023-11-21T12:33:30;24.60;;;5.47;;
42760;SDS011;31672;47.638;19.026;2023-11-21T12:38:36;8.10;;;3.70;;
42760;SDS011;31672;47.638;19.026;2023-11-21T12:43:40;21.03;;;8.03;;
42760;SDS011;31672;47.638;19.026;2023-11-21T12:48:44;24.07;;;8.63;;
42760;SDS011;31672;47.638;19.026;2023-11-21T12:53:48;6.93;;;3.17;;
42760;SDS011;31672;47.638;19.026;2023-11-21T12:58:53;9.27;;;3.47;;
42760;SDS011;31672;47.638;19.026;2023-11-21T13:04:00;6.87;;;3.50;;
42760;SDS011;31672;47.638;19.026;2023-11-21T13:09:05;4.40;;;1.50;;
42760;SDS011;31672;47.638;19.026;2023-11-21T13:14:10;1.97;;;1.13;;
42760;SDS011;31672;47.638;19.026;2023-11-21T13:19:14;3.20;;;1.43;;
42760;SDS011;31672;47.638;19.026;2023-11-21T13:24:18;6.83;;;3.23;;
42760;SDS011;31672;47.638;19.026;2023-11-21T13:29:22;9.57;;;4.20;;
42760;SDS011;31672;47.638;19.026;2023-11-21T13:34:28;11.03;;;4.27;;
42760;SDS011;31672;47.638;19.026;2023-11-21T13:39:36;12.70;;;5.00;;
42760;SDS011;31672;47.638;19.026;2023-11-21T13:44:41;8.97;;;4.23;;
42760;SDS011;31672;47.638;19.026;2023-11-21T13:49:47;11.83;;;5.33;;
42760;SDS011;31672;47.638;19.026;2023-11-21T13:54:52;9.10;;;4.23;;
42760;SDS011;31672;47.638;19.026;2023-11-21T13:59:56;8.87;;;4.40;;
42760;SDS011;31672;47.638;19.026;2023-11-21T14:05:01;9.67;;;4.17;;
42760;SDS011;31672;47.638;19.026;2023-11-21T14:10:12;40.47;;;14.07;;
42760;SDS011;31672;47.638;19.026;2023-11-21T14:15:18;32.70;;;13.90;;
42760;SDS011;31672;47.638;19.026;2023-11-21T14:20:22;27.33;;;11.10;;
42760;SDS011;31672;47.638;19.026;2023-11-21T14:25:26;23.23;;;11.40;;
42760;SDS011;31672;47.638;19.026;2023-11-21T14:30:31;16.57;;;9.03;;
42760;SDS011;31672;47.638;19.026;2023-11-21T14:35:38;18.40;;;8.77;;
42760;SDS011;31672;47.638;19.026;2023-11-21T14:40:41;14.83;;;7.80;;
42760;SDS011;31672;47.638;19.026;2023-11-21T14:45:45;27.33;;;10.43;;
42760;SDS011;31672;47.638;19.026;2023-11-21T14:50:49;36.20;;;13.77;;
42760;SDS011;31672;47.638;19.026;2023-11-21T14:56:04;37.60;;;14.60;;
42760;SDS011;31672;47.638;19.026;2023-11-21T15:01:10;32.30;;;14.77;;
42760;SDS011;31672;47.638;19.026;2023-11-21T15:06:14;24.47;;;10.77;;
42760;SDS011;31672;47.638;19.026;2023-11-21T15:11:24;20.03;;;9.30;;
42760;SDS011;31672;47.638;19.026;2023-11-21T15:16:33;46.17;;;22.37;;
42760;SDS011;31672;47.638;19.026;2023-11-21T15:21:44;34.00;;;18.90;;
42760;SDS011;31672;47.638;19.026;2023-11-21T15:26:48;34.90;;;17.70;;
42760;SDS011;31672;47.638;19.026;2023-11-21T15:31:53;24.97;;;11.40;;
42760;SDS011;31672;47.638;19.026;2023-11-21T15:36:59;23.80;;;12.17;;
42760;SDS011;31672;47.638;19.026;2023-11-21T15:42:03;22.73;;;10.10;;
42760;SDS011;31672;47.638;19.026;2023-11-21T15:47:08;14.97;;;7.20;;
42760;SDS011;31672;47.638;19.026;2023-11-21T15:52:12;28.43;;;13.50;;
42760;SDS011;31672;47.638;19.026;2023-11-21T15:57:16;29.27;;;12.43;;
42760;SDS011;31672;47.638;19.026;2023-11-21T16:02:21;44.40;;;20.30;;
42760;SDS011;31672;47.638;19.026;2023-11-21T16:07:24;53.27;;;22.33;;
42760;SDS011;31672;47.638;19.026;2023-11-21T16:12:28;90.67;;;34.50;;
42760;SDS011;31672;47.638;19.026;2023-11-21T16:17:31;115.33;;;45.23;;
42760;SDS011;31672;47.638;19.026;2023-11-21T16:22:37;74.73;;;33.77;;
42760;SDS011;31672;47.638;19.026;2023-11-21T16:27:41;38.00;;;19.80;;
42760;SDS011;31672;47.638;19.026;2023-11-21T16:32:49;48.97;;;16.57;;
42760;SDS011;31672;47.638;19.026;2023-11-21T16:37:52;22.80;;;9.10;;
42760;SDS011;31672;47.638;19.026;2023-11-21T16:42:56;13.17;;;6.83;;
42760;SDS011;31672;47.638;19.026;2023-11-21T16:47:59;9.83;;;5.23;;
42760;SDS011;31672;47.638;19.026;2023-11-21T16:53:05;17.03;;;7.97;;
42760;SDS011;31672;47.638;19.026;2023-11-21T16:58:10;18.87;;;8.80;;
42760;SDS011;31672;47.638;19.026;2023-11-21T17:03:14;27.87;;;11.20;;
42760;SDS011;31672;47.638;19.026;2023-11-21T17:08:17;23.33;;;11.60;;
42760;SDS011;31672;47.638;19.026;2023-11-21T17:13:22;30.43;;;16.50;;
42760;SDS011;31672;47.638;19.026;2023-11-21T17:18:26;30.73;;;14.60;;
42760;SDS011;31672;47.638;19.026;2023-11-21T17:23:30;29.60;;;12.97;;
42760;SDS011;31672;47.638;19.026;2023-11-21T17:28:36;49.93;;;22.47;;
42760;SDS011;31672;47.638;19.026;2023-11-21T17:33:40;38.87;;;17.50;;
42760;SDS011;31672;47.638;19.026;2023-11-21T17:38:44;43.47;;;19.33;;
42760;SDS011;31672;47.638;19.026;2023-11-21T17:43:49;39.70;;;19.53;;
42760;SDS011;31672;47.638;19.026;2023-11-21T17:48:53;33.43;;;16.60;;
42760;SDS011;31672;47.638;19.026;2023-11-21T17:53:57;46.33;;;19.40;;
42760;SDS011;31672;47.638;19.026;2023-11-21T17:59:05;45.40;;;19.93;;
42760;SDS011;31672;47.638;19.026;2023-11-21T18:04:09;53.87;;;22.53;;
42760;SDS011;31672;47.638;19.026;2023-11-21T18:09:15;60.70;;;21.97;;
42760;SDS011;31672;47.638;19.026;2023-11-21T18:14:19;56.93;;;23.47;;
42760;SDS011;31672;47.638;19.026;2023-11-21T18:19:23;63.70;;;27.17;;
42760;SDS011;31672;47.638;19.026;2023-11-21T18:24:27;71.47;;;28.57;;
42760;SDS011;31672;47.638;19.026;2023-11-21T18:29:31;67.70;;;25.17;;
42760;SDS011;31672;47.638;19.026;2023-11-21T18:34:35;62.83;;;26.80;;
42760;SDS011;31672;47.638;19.026;2023-11-21T18:39:39;57.10;;;22.73;;
42760;SDS011;31672;47.638;19.026;2023-11-21T18:44:43;42.53;;;18.87;;
42760;SDS011;31672;47.638;19.026;2023-11-21T18:50:00;32.77;;;15.97;;
42760;SDS011;31672;47.638;19.026;2023-11-21T18:55:04;32.93;;;15.93;;
42760;SDS011;31672;47.638;19.026;2023-11-21T19:00:09;35.83;;;17.50;;
42760;SDS011;31672;47.638;19.026;2023-11-21T19:05:16;31.97;;;14.43;;
42760;SDS011;31672;47.638;19.026;2023-11-21T19:10:19;45.97;;;18.27;;
42760;SDS011;31672;47.638;19.026;2023-11-21T19:15:24;78.20;;;29.40;;
42760;SDS011;31672;47.638;19.026;2023-11-21T19:20:28;75.03;;;23.50;;
42760;SDS011;31672;47.638;19.026;2023-11-21T19:25:32;83.70;;;31.30;;
42760;SDS011;31672;47.638;19.026;2023-11-21T19:30:36;75.27;;;31.17;;
42760;SDS011;31672;47.638;19.026;2023-11-21T19:35:42;67.30;;;26.20;;
42760;SDS011;31672;47.638;19.026;2023-11-21T19:40:48;60.87;;;23.33;;
42760;SDS011;31672;47.638;19.026;2023-11-21T19:45:52;34.77;;;16.90;;
42760;SDS011;31672;47.638;19.026;2023-11-21T19:50:56;29.13;;;14.17;;
42760;SDS011;31672;47.638;19.026;2023-11-21T19:55:59;24.07;;;11.80;;
42760;SDS011;31672;47.638;19.026;2023-11-21T20:01:17;25.57;;;11.57;;
42760;SDS011;31672;47.638;19.026;2023-11-21T20:06:23;29.27;;;13.50;;
42760;SDS011;31672;47.638;19.026;2023-11-21T20:11:27;36.03;;;14.60;;
42760;SDS011;31672;47.638;19.026;2023-11-21T20:16:38;93.87;;;30.53;;
42760;SDS011;31672;47.638;19.026;2023-11-21T20:21:43;41.23;;;17.90;;
42760;SDS011;31672;47.638;19.026;2023-11-21T20:26:49;44.43;;;18.50;;
42760;SDS011;31672;47.638;19.026;2023-11-21T20:31:53;27.77;;;12.37;;
42760;SDS011;31672;47.638;19.026;2023-11-21T20:36:56;29.03;;;15.03;;
42760;SDS011;31672;47.638;19.026;2023-11-21T20:42:01;27.83;;;13.57;;
42760;SDS011;31672;47.638;19.026;2023-11-21T20:47:04;22.70;;;11.77;;
42760;SDS011;31672;47.638;19.026;2023-11-21T20:52:14;25.07;;;10.43;;
42760;SDS011;31672;47.638;19.026;2023-11-21T20:57:18;33.17;;;13.77;;
42760;SDS011;31672;47.638;19.026;2023-11-21T21:02:22;29.97;;;14.07;;
42760;SDS011;31672;47.638;19.026;2023-11-21T21:07:27;25.57;;;12.93;;
42760;SDS011;31672;47.638;19.026;2023-11-21T21:12:32;22.97;;;11.07;;
42760;SDS011;31672;47.638;19.026;2023-11-21T21:17:36;19.90;;;9.87;;
42760;SDS011;31672;47.638;19.026;2023-11-21T21:22:44;20.70;;;11.03;;
42760;SDS011;31672;47.638;19.026;2023-11-21T21:27:48;23.63;;;9.63;;
42760;SDS011;31672;47.638;19.026;2023-11-21T21:32:51;33.57;;;15.50;;
42760;SDS011;31672;47.638;19.026;2023-11-21T21:37:55;32.40;;;15.40;;
42760;SDS011;31672;47.638;19.026;2023-11-21T21:42:59;36.03;;;17.30;;
42760;SDS011;31672;47.638;19.026;2023-11-21T21:48:04;27.53;;;13.47;;
42760;SDS011;31672;47.638;19.026;2023-11-21T21:53:08;35.07;;;17.60;;
42760;SDS011;31672;47.638;19.026;2023-11-21T21:58:15;32.17;;;15.73;;
42760;SDS011;31672;47.638;19.026;2023-11-21T22:03:19;34.47;;;16.57;;
42760;SDS011;31672;47.638;19.026;2023-11-21T22:08:23;55.30;;;19.47;;
42760;SDS011;31672;47.638;19.026;2023-11-21T22:13:30;42.50;;;17.47;;
42760;SDS011;31672;47.638;19.026;2023-11-21T22:18:34;34.67;;;16.33;;
42760;SDS011;31672;47.638;19.026;2023-11-21T22:23:40;29.60;;;12.87;;
42760;SDS011;31672;47.638;19.026;2023-11-21T22:28:43;25.77;;;12.50;;
42760;SDS011;31672;47.638;19.026;2023-11-21T22:33:47;22.50;;;12.20;;
42760;SDS011;31672;47.638;19.026;2023-11-21T22:38:51;35.27;;;14.57;;
42760;SDS011;31672;47.638;19.026;2023-11-21T22:43:54;30.80;;;13.77;;
42760;SDS011;31672;47.638;19.026;2023-11-21T22:48:58;44.17;;;17.80;;
42760;SDS011;31672;47.638;19.026;2023-11-21T22:54:02;42.37;;;15.97;;
42760;SDS011;31672;47.638;19.026;2023-11-21T22:59:05;28.97;;;12.20;;
42760;SDS011;31672;47.638;19.026;2023-11-21T23:04:09;22.97;;;10.50;;
42760;SDS011;31672;47.638;19.026;2023-11-21T23:09:13;24.73;;;12.60;;
42760;SDS011;31672;47.638;19.026;2023-11-21T23:14:18;40.90;;;14.90;;
42760;SDS011;31672;47.638;19.026;2023-11-21T23:19:22;40.30;;;14.33;;
42760;SDS011;31672;47.638;19.026;2023-11-21T23:24:26;35.47;;;14.03;;
42760;SDS011;31672;47.638;19.026;2023-11-21T23:29:30;32.20;;;13.97;;
42760;SDS011;31672;47.638;19.026;2023-11-21T23:34:34;38.20;;;13.40;;
42760;SDS011;31672;47.638;19.026;2023-11-21T23:39:40;72.37;;;18.90;;
42760;SDS011;31672;47.638;19.026;2023-11-21T23:44:44;25.70;;;10.23;;
42760;SDS011;31672;47.638;19.026;2023-11-21T23:49:51;21.93;;;9.73;;
42760;SDS011;31672;47.638;19.026;2023-11-21T23:54:55;24.00;;;11.43;;
42760;SDS011;31672;47.638;19.026;2023-11-21T23:59:59;19.27;;;10.00;;
